createdAt,value
2018-06-15T00:00:09.006Z,1012.43
2018-06-15T00:01:08.822Z,1012.49
2018-06-15T00:02:09.882Z,1012.45
2018-06-15T00:03:08.671Z,1012.45
2018-06-15T00:04:08.616Z,1012.44
2018-06-15T00:05:08.516Z,1012.43
2018-06-15T00:06:08.532Z,1012.41
2018-06-15T00:07:08.394Z,1012.42
2018-06-15T00:08:08.338Z,1012.44
2018-06-15T00:09:08.204Z,1012.40
2018-06-15T00:11:50.398Z,1012.40
2018-06-15T00:12:51.401Z,1012.38
2018-06-15T00:13:50.229Z,1012.45
2018-06-15T00:16:32.381Z,1012.45
2018-06-15T00:18:57.976Z,1012.45
2018-06-15T00:40:11.855Z,1012.40
2018-06-15T00:41:11.833Z,1012.38
2018-06-15T00:42:11.687Z,1012.40
2018-06-15T00:43:12.714Z,1012.38
2018-06-15T00:44:11.512Z,1012.42
2018-06-15T00:45:11.576Z,1012.39
2018-06-15T00:46:11.378Z,1012.39
2018-06-15T00:48:53.441Z,1012.35
2018-06-15T00:50:54.487Z,1012.31
2018-06-15T00:50:54.989Z,1012.30
2018-06-15T00:51:55.061Z,1012.33
2018-06-15T00:52:54.825Z,1012.30
2018-06-15T00:53:54.858Z,1012.29
2018-06-15T00:54:54.674Z,1012.34
2018-06-15T00:57:36.916Z,1012.29
2018-06-15T00:58:36.935Z,1012.33
2018-06-15T00:59:36.736Z,1012.33
2018-06-15T01:00:36.743Z,1012.29
2018-06-15T01:01:36.581Z,1012.29
2018-06-15T01:02:36.582Z,1012.28
2018-06-15T01:03:36.418Z,1012.27
2018-06-15T01:04:36.360Z,1012.31
2018-06-15T01:05:36.261Z,1012.29
2018-06-15T01:06:36.266Z,1012.29
2018-06-15T01:07:36.125Z,1012.26
2018-06-15T01:08:36.116Z,1012.32
2018-06-15T01:09:35.967Z,1012.31
2018-06-15T01:10:35.985Z,1012.29
2018-06-15T01:11:35.794Z,1012.26
2018-06-15T01:14:17.930Z,1012.25
2018-06-15T01:15:17.891Z,1012.18
2018-06-15T01:16:17.757Z,1012.19
2018-06-15T01:17:17.709Z,1012.21
2018-06-15T01:18:17.583Z,1012.18
2018-06-15T01:19:17.657Z,1012.15
2018-06-15T01:20:17.437Z,1012.16
2018-06-15T01:21:17.429Z,1012.15
2018-06-15T01:22:17.291Z,1012.16
2018-06-15T01:24:59.423Z,1012.14
2018-06-15T01:25:59.429Z,1012.13
2018-06-15T01:26:59.241Z,1012.16
2018-06-15T01:27:59.276Z,1012.13
2018-06-15T01:30:23.920Z,1012.13
2018-06-15T01:33:05.898Z,1012.10
2018-06-15T01:34:06.900Z,1012.08
2018-06-15T01:35:05.749Z,1012.09
2018-06-15T01:36:05.751Z,1012.08
2018-06-15T01:37:05.584Z,1012.08
2018-06-15T01:39:47.430Z,1012.07
2018-06-15T01:40:47.380Z,1012.11
2018-06-15T01:41:47.247Z,1012.05
2018-06-15T01:42:47.287Z,1012.04
2018-06-15T01:43:47.087Z,1012.07
2018-06-15T01:44:48.131Z,1012.04
2018-06-15T01:45:46.933Z,1012.02
2018-06-15T01:48:56.635Z,1012.06
2018-06-15T01:49:54.358Z,1012.05
2018-06-15T01:50:54.277Z,1012.03
2018-06-15T01:51:54.173Z,1012.04
2018-06-15T01:52:54.187Z,1012.02
2018-06-15T01:53:54.009Z,1012.01
2018-06-15T01:54:54.035Z,1012.02
2018-06-15T01:55:53.888Z,1012.04
2018-06-15T01:56:53.914Z,1012.05
2018-06-15T01:57:53.699Z,1012.05
2018-06-15T02:00:32.064Z,1012.02
2018-06-15T02:01:30.891Z,1012.03
2018-06-15T02:02:30.834Z,1012.03
2018-06-15T02:03:30.677Z,1012.00
2018-06-15T02:04:30.715Z,1012.03
2018-06-15T02:05:30.515Z,1012.01
2018-06-15T02:06:30.570Z,1012.00
2018-06-15T02:07:30.365Z,1011.98
2018-06-15T02:08:30.331Z,1012.00
2018-06-15T02:09:30.217Z,1011.99
2018-06-15T02:10:30.274Z,1011.99
2018-06-15T02:11:30.048Z,1012.04
2018-06-15T02:12:30.056Z,1012.01
2018-06-15T02:13:29.900Z,1012.01
2018-06-15T02:14:29.879Z,1012.04
2018-06-15T02:15:29.767Z,1012.00
2018-06-15T02:16:29.769Z,1011.98
2018-06-15T02:17:29.604Z,1011.99
2018-06-15T02:18:29.582Z,1011.98
2018-06-15T02:19:29.413Z,1011.95
2018-06-15T02:21:01.532Z,1011.92
2018-06-15T02:21:29.295Z,1011.93
2018-06-15T02:22:29.212Z,1011.95
2018-06-15T02:23:29.208Z,1011.93
2018-06-15T02:24:29.023Z,1011.93
2018-06-15T02:27:10.949Z,1011.93
2018-06-15T02:28:10.944Z,1011.94
2018-06-15T02:29:10.758Z,1011.94
2018-06-15T02:30:10.723Z,1011.97
2018-06-15T02:31:10.609Z,1011.99
2018-06-15T02:32:10.669Z,1012.00
2018-06-15T02:33:10.470Z,1012.00
2018-06-15T02:34:10.432Z,1012.02
2018-06-15T02:35:10.289Z,1012.03
2018-06-15T02:36:10.236Z,1012.00
2018-06-15T02:37:10.162Z,1012.04
2018-06-15T02:38:11.124Z,1012.02
2018-06-15T02:39:09.973Z,1012.06
2018-06-15T02:41:51.937Z,1012.03
2018-06-15T02:42:52.914Z,1012.03
2018-06-15T02:43:51.781Z,1012.04
2018-06-15T02:44:51.774Z,1012.04
2018-06-15T02:45:51.614Z,1012.09
2018-06-15T02:48:33.460Z,1012.11
2018-06-15T02:49:33.465Z,1012.16
2018-06-15T02:50:33.266Z,1012.14
2018-06-15T02:51:33.335Z,1012.11
2018-06-15T02:52:33.108Z,1012.10
2018-06-15T02:53:34.153Z,1012.11
2018-06-15T02:54:32.967Z,1012.11
2018-06-15T02:55:32.998Z,1012.11
2018-06-15T02:56:32.794Z,1012.12
2018-06-15T02:59:14.944Z,1012.08
2018-06-15T03:00:35.842Z,1012.12
2018-06-15T03:01:14.769Z,1012.12
2018-06-15T03:02:14.817Z,1012.17
2018-06-15T03:03:14.619Z,1012.16
2018-06-15T03:04:14.629Z,1012.17
2018-06-15T03:05:14.474Z,1012.11
2018-06-15T03:06:14.435Z,1012.19
2018-06-15T03:07:14.297Z,1012.16
2018-06-15T03:08:14.340Z,1012.19
2018-06-15T03:09:14.167Z,1012.17
2018-06-15T03:11:56.440Z,1012.17
2018-06-15T03:12:56.457Z,1012.15
2018-06-15T03:13:56.277Z,1012.18
2018-06-15T03:14:56.291Z,1012.18
2018-06-15T03:15:56.123Z,1012.17
2018-06-15T03:16:56.079Z,1012.19
2018-06-15T03:20:19.957Z,1012.21
2018-06-15T03:21:19.959Z,1012.22
2018-06-15T03:22:19.778Z,1012.23
2018-06-15T03:25:02.042Z,1012.19
2018-06-15T03:26:06.625Z,1012.21
2018-06-15T03:27:01.776Z,1012.23
2018-06-15T03:28:01.780Z,1012.24
2018-06-15T03:29:01.620Z,1012.20
2018-06-15T03:32:58.431Z,1012.19
2018-06-15T03:33:58.473Z,1012.25
2018-06-15T03:34:58.309Z,1012.25
2018-06-15T03:35:58.292Z,1012.26
2018-06-15T03:36:58.131Z,1012.29
2018-06-15T03:37:58.161Z,1012.27
2018-06-15T03:38:57.975Z,1012.29
2018-06-15T03:39:57.994Z,1012.26
2018-06-15T03:40:57.811Z,1012.23
2018-06-15T03:41:57.828Z,1012.30
2018-06-15T03:42:57.650Z,1012.26
2018-06-15T03:43:57.682Z,1012.28
2018-06-15T03:44:57.491Z,1012.31
2018-06-15T03:45:57.493Z,1012.30
2018-06-15T03:46:57.368Z,1012.30
2018-06-15T03:49:39.442Z,1012.34
2018-06-15T03:50:39.430Z,1012.32
2018-06-15T03:51:39.300Z,1012.32
2018-06-15T03:54:21.446Z,1012.33
2018-06-15T03:55:22.464Z,1012.34
2018-06-15T03:56:21.282Z,1012.35
2018-06-15T03:57:21.351Z,1012.35
2018-06-15T03:58:21.127Z,1012.36
2018-06-15T03:59:21.128Z,1012.33
2018-06-15T04:00:20.980Z,1012.34
2018-06-15T04:01:20.944Z,1012.35
2018-06-15T04:02:20.833Z,1012.36
2018-06-15T04:03:20.868Z,1012.35
2018-06-15T04:04:20.677Z,1012.35
2018-06-15T04:05:20.662Z,1012.43
2018-06-15T04:06:20.567Z,1012.45
2018-06-15T04:07:20.494Z,1012.46
2018-06-15T04:08:20.341Z,1012.53
2018-06-15T04:09:20.379Z,1012.48
2018-06-15T04:10:20.184Z,1012.52
2018-06-15T04:11:20.227Z,1012.53
2018-06-15T04:12:20.057Z,1012.50
2018-06-15T04:13:20.009Z,1012.50
2018-06-15T04:14:19.868Z,1012.46
2018-06-15T04:17:01.963Z,1012.49
2018-06-15T04:18:01.917Z,1012.48
2018-06-15T04:19:01.799Z,1012.46
2018-06-15T04:20:01.831Z,1012.49
2018-06-15T04:21:01.645Z,1012.48
2018-06-15T04:22:01.672Z,1012.49
2018-06-15T04:23:01.522Z,1012.47
2018-06-15T04:25:43.449Z,1012.51
2018-06-15T04:26:43.436Z,1012.47
2018-06-15T04:27:43.308Z,1012.47
2018-06-15T04:28:43.278Z,1012.52
2018-06-15T04:29:43.148Z,1012.52
2018-06-15T04:30:43.150Z,1012.52
2018-06-15T04:31:43.008Z,1012.55
2018-06-15T04:32:42.961Z,1012.55
2018-06-15T04:33:42.860Z,1012.59
2018-06-15T04:36:25.069Z,1012.57
2018-06-15T04:37:24.985Z,1012.57
2018-06-15T04:38:24.828Z,1012.52
2018-06-15T04:39:24.784Z,1012.55
2018-06-15T04:40:24.647Z,1012.52
2018-06-15T05:04:47.013Z,1012.67
2018-06-15T05:05:46.825Z,1012.63
2018-06-15T05:06:46.881Z,1012.61
2018-06-15T05:07:46.712Z,1012.62
2018-06-15T05:08:46.679Z,1012.66
2018-06-15T05:09:46.681Z,1012.67
2018-06-15T05:10:46.489Z,1012.62
2018-06-15T05:11:46.351Z,1012.69
2018-06-15T05:12:46.406Z,1012.73
2018-06-15T05:13:46.202Z,1012.69
2018-06-15T05:14:46.258Z,1012.69
2018-06-15T05:15:46.065Z,1012.72
2018-06-15T05:16:46.038Z,1012.74
2018-06-15T05:17:45.905Z,1012.70
2018-06-15T05:18:45.932Z,1012.72
2018-06-15T05:19:45.751Z,1012.73
2018-06-15T05:20:45.801Z,1012.74
2018-06-15T05:21:45.588Z,1012.71
2018-06-15T05:22:45.562Z,1012.74
2018-06-15T05:23:45.413Z,1012.76
2018-06-15T05:26:27.499Z,1012.68
2018-06-15T05:29:09.466Z,1012.70
2018-06-15T05:31:51.485Z,1012.65
2018-06-15T05:32:51.451Z,1012.76
2018-06-15T05:33:51.313Z,1012.68
2018-06-15T05:36:33.593Z,1012.77
2018-06-15T05:37:33.396Z,1012.80
2018-06-15T05:40:15.482Z,1012.78
2018-06-15T05:41:16.639Z,1012.78
2018-06-15T06:00:13.482Z,1012.86
2018-06-15T06:01:13.305Z,1012.93
2018-06-15T06:02:13.263Z,1012.91
2018-06-15T06:03:13.167Z,1012.93
2018-06-15T06:04:13.236Z,1012.92
2018-06-15T06:05:12.973Z,1012.93
2018-06-15T06:06:12.962Z,1012.95
2018-06-15T06:07:12.841Z,1012.95
2018-06-15T06:08:12.810Z,1012.88
2018-06-15T06:09:12.663Z,1012.81
2018-06-15T06:10:12.697Z,1012.86
2018-06-15T06:11:12.506Z,1012.89
2018-06-15T06:12:12.503Z,1012.93
2018-06-15T06:13:12.455Z,1012.97
2018-06-15T06:14:12.400Z,1012.97
2018-06-15T06:15:12.208Z,1013.01
2018-06-15T06:16:12.236Z,1013.03
2018-06-15T06:17:12.042Z,1013.04
2018-06-15T06:18:12.072Z,1013.08
2018-06-15T06:19:11.890Z,1013.08
2018-06-15T06:21:20.092Z,1013.09
2018-06-15T06:21:20.620Z,1013.16
2018-06-15T06:24:03.046Z,1013.19
2018-06-15T06:26:45.010Z,1013.22
2018-06-15T06:27:44.942Z,1013.23
2018-06-15T06:28:44.876Z,1013.24
2018-06-15T06:29:44.856Z,1013.22
2018-06-15T06:30:44.686Z,1013.21
2018-06-15T06:31:44.678Z,1013.18
2018-06-15T06:32:44.557Z,1013.21
2018-06-15T06:33:44.576Z,1013.18
2018-06-15T06:34:44.402Z,1013.21
2018-06-15T06:35:44.403Z,1013.19
2018-06-15T06:36:44.231Z,1013.22
2018-06-15T06:37:44.194Z,1013.18
2018-06-15T06:38:44.088Z,1013.19
2018-06-15T06:39:44.126Z,1013.24
2018-06-15T06:40:43.927Z,1013.22
2018-06-15T06:41:43.935Z,1013.24
2018-06-15T06:42:43.774Z,1013.26
2018-06-15T06:43:43.795Z,1013.25
2018-06-15T06:44:43.643Z,1013.24
2018-06-15T06:48:18.514Z,1013.43
2018-06-15T06:51:04.515Z,1013.42
2018-06-15T06:52:04.469Z,1013.76
2018-06-15T06:53:04.355Z,1013.77
2018-06-15T06:54:04.301Z,1013.86
2018-06-15T06:55:04.237Z,1013.99
2018-06-15T06:56:04.236Z,1013.87
2018-06-15T07:19:24.782Z,1013.40
2018-06-15T07:20:24.843Z,1013.55
2018-06-15T07:21:24.658Z,1013.53
2018-06-15T07:24:06.553Z,1013.62
2018-06-15T07:25:06.531Z,1013.67
2018-06-15T07:26:06.387Z,1013.78
2018-06-15T07:27:06.338Z,1013.55
2018-06-15T07:28:06.239Z,1013.60
2018-06-15T07:29:06.245Z,1013.54
2018-06-15T07:30:06.079Z,1013.53
2018-06-15T07:32:48.040Z,1013.55
2018-06-15T07:33:48.040Z,1013.50
2018-06-15T07:34:47.865Z,1013.47
2018-06-15T07:37:30.045Z,1013.32
2018-06-15T07:38:30.059Z,1013.28
2018-06-15T07:39:29.878Z,1013.31
2018-06-15T07:40:29.868Z,1013.33
2018-06-15T07:41:29.755Z,1013.33
2018-06-15T07:45:10.544Z,1013.37
2018-06-15T07:46:10.619Z,1013.43
2018-06-15T07:47:10.676Z,1013.39
2018-06-15T07:48:10.348Z,1013.46
2018-06-15T07:49:10.242Z,1013.40
2018-06-15T07:51:52.519Z,1013.34
2018-06-15T07:52:52.517Z,1013.37
2018-06-15T07:53:52.401Z,1013.41
2018-06-15T08:01:10.083Z,1013.39
2018-06-15T08:02:09.872Z,1013.40
2018-06-15T08:03:09.839Z,1013.44
2018-06-15T08:05:51.689Z,1013.39
2018-06-15T08:06:51.457Z,1013.48
2018-06-15T08:07:51.450Z,1013.45
2018-06-15T08:08:51.369Z,1013.40
2018-06-15T08:09:52.324Z,1013.44
2018-06-15T08:10:51.202Z,1013.39
2018-06-15T08:11:51.107Z,1013.48
2018-06-15T08:12:51.010Z,1013.91
2018-06-15T08:13:50.979Z,1013.59
2018-06-15T08:14:50.873Z,1013.75
2018-06-15T08:15:50.809Z,1013.46
2018-06-15T08:16:50.734Z,1013.45
2018-06-15T08:17:50.659Z,1013.43
2018-06-15T08:18:50.615Z,1013.44
2018-06-15T08:19:50.504Z,1013.41
2018-06-15T08:20:50.431Z,1013.46
2018-06-15T08:21:50.413Z,1013.47
2018-06-15T08:22:50.283Z,1013.36
2018-06-15T08:23:50.325Z,1013.39
2018-06-15T08:24:50.167Z,1013.37
2018-06-15T08:25:50.126Z,1013.35
2018-06-15T08:26:49.980Z,1013.36
2018-06-15T08:27:49.994Z,1013.35
2018-06-15T08:28:49.819Z,1013.32
2018-06-15T08:29:49.896Z,1013.32
2018-06-15T08:30:49.700Z,1013.33
2018-06-15T08:31:49.625Z,1013.35
2018-06-15T08:32:49.532Z,1013.33
2018-06-15T08:33:49.574Z,1013.33
2018-06-15T08:34:49.413Z,1013.30
2018-06-15T08:35:49.451Z,1013.32
2018-06-15T08:36:49.238Z,1013.37
2018-06-15T08:37:49.166Z,1013.35
2018-06-15T08:38:49.084Z,1013.33
2018-06-15T08:39:49.051Z,1013.41
2018-06-15T08:40:48.949Z,1013.43
2018-06-15T08:41:48.896Z,1013.40
2018-06-15T08:42:48.804Z,1013.43
2018-06-15T08:43:48.829Z,1013.72
2018-06-15T08:44:48.631Z,1013.76
2018-06-15T08:45:48.581Z,1013.78
2018-06-15T08:46:48.521Z,1013.40
2018-06-15T08:49:30.545Z,1013.35
2018-06-15T08:50:31.497Z,1013.43
2018-06-15T08:51:30.397Z,1013.44
2018-06-15T08:52:30.351Z,1013.48
2018-06-15T08:53:30.249Z,1013.46
2018-06-15T08:54:30.192Z,1013.78
2018-06-15T08:55:30.101Z,1013.64
2018-06-15T08:56:31.058Z,1013.53
2018-06-15T08:57:29.951Z,1013.42
2018-06-15T08:58:29.897Z,1013.47
2018-06-15T08:59:29.818Z,1013.52
2018-06-15T09:00:29.745Z,1013.81
2018-06-15T09:01:29.698Z,1013.78
2018-06-15T09:02:29.612Z,1013.74
2018-06-15T09:03:29.523Z,1013.73
2018-06-15T09:04:29.468Z,1013.75
2018-06-15T09:05:29.387Z,1013.76
2018-06-15T09:06:30.388Z,1013.88
2018-06-15T09:07:29.257Z,1013.79
2018-06-15T09:10:11.585Z,1013.36
2018-06-15T09:11:11.485Z,1013.35
2018-06-15T09:12:11.447Z,1013.57
2018-06-15T09:13:11.355Z,1013.80
2018-06-15T09:14:11.282Z,1013.92
2018-06-15T09:16:53.546Z,1013.39
2018-06-15T09:17:53.512Z,1013.78
2018-06-15T09:18:53.418Z,1013.87
2018-06-15T09:21:35.554Z,1013.93
2018-06-15T09:22:36.521Z,1013.91
2018-06-15T09:23:35.490Z,1013.98
2018-06-15T09:26:17.631Z,1013.74
2018-06-15T09:27:17.504Z,1013.74
2018-06-15T09:28:17.490Z,1013.85
2018-06-15T09:29:17.363Z,1013.33
2018-06-15T09:30:17.303Z,1013.34
2018-06-15T09:32:59.580Z,1013.36
2018-06-15T09:33:59.526Z,1013.82
2018-06-15T09:34:59.472Z,1014.04
2018-06-15T09:35:59.368Z,1013.98
2018-06-15T09:36:59.297Z,1014.05
2018-06-15T09:39:41.592Z,1014.11
2018-06-15T09:42:23.578Z,1014.14
2018-06-15T09:43:23.530Z,1014.17
2018-06-15T09:44:23.460Z,1014.11
2018-06-15T09:47:05.602Z,1013.40
2018-06-15T09:48:05.520Z,1013.42
2018-06-15T09:49:05.441Z,1013.78
2018-06-15T09:50:06.392Z,1014.02
2018-06-15T09:51:05.315Z,1014.09
2018-06-15T09:52:05.272Z,1014.07
2018-06-15T09:53:05.172Z,1013.99
2018-06-15T09:54:05.133Z,1014.08
2018-06-15T09:55:05.063Z,1014.04
2018-06-15T09:56:04.990Z,1014.13
2018-06-15T09:57:04.911Z,1014.11
2018-06-15T09:58:04.864Z,1013.39
2018-06-15T09:59:04.785Z,1013.35
2018-06-15T10:01:47.104Z,1013.37
2018-06-15T10:02:47.012Z,1014.01
2018-06-15T10:03:46.947Z,1014.01
2018-06-15T10:04:46.991Z,1013.91
2018-06-15T10:05:46.895Z,1014.02
2018-06-15T10:06:46.765Z,1014.07
2018-06-15T10:07:46.673Z,1013.92
2018-06-15T10:08:46.736Z,1014.10
2018-06-15T10:09:46.548Z,1014.05
2018-06-15T10:10:46.561Z,1013.92
2018-06-15T10:11:46.417Z,1014.12
2018-06-15T10:12:46.459Z,1014.06
2018-06-15T10:13:46.305Z,1014.00
2018-06-15T10:16:28.619Z,1013.34
2018-06-15T10:17:28.527Z,1013.31
2018-06-15T10:18:28.459Z,1013.30
2018-06-15T10:19:28.471Z,1013.30
2018-06-15T10:20:28.332Z,1013.27
2018-06-15T10:21:28.445Z,1013.29
2018-06-15T10:22:28.191Z,1013.36
2018-06-15T10:23:28.200Z,1013.37
2018-06-15T10:24:28.060Z,1013.29
2018-06-15T10:25:28.106Z,1013.26
2018-06-15T10:26:27.947Z,1013.29
2018-06-15T10:27:27.923Z,1013.27
2018-06-15T10:28:27.804Z,1013.22
2018-06-15T10:31:10.086Z,1013.24
2018-06-15T10:32:11.165Z,1013.63
2018-06-15T10:33:10.021Z,1013.85
2018-06-15T10:34:09.931Z,1013.87
2018-06-15T10:35:09.841Z,1013.75
2018-06-15T10:37:52.122Z,1013.99
2018-06-15T10:40:34.101Z,1013.93
2018-06-15T10:41:34.173Z,1013.66
2018-06-15T10:42:34.123Z,1013.72
2018-06-15T10:43:33.945Z,1013.55
2018-06-15T10:44:33.810Z,1013.56
2018-06-15T10:45:33.867Z,1013.62
2018-06-15T10:46:33.680Z,1013.63
2018-06-15T10:47:33.694Z,1013.97
2018-06-15T10:48:33.565Z,1013.90
2018-06-15T10:49:33.587Z,1013.88
2018-06-15T10:50:33.425Z,1013.92
2018-06-15T10:51:33.392Z,1013.90
2018-06-15T10:52:33.312Z,1013.90
2018-06-15T10:53:35.282Z,1013.85
2018-06-15T10:54:33.169Z,1013.22
2018-06-15T10:55:33.205Z,1013.26
2018-06-15T10:56:33.027Z,1013.27
2018-06-15T10:57:33.029Z,1013.25
2018-06-15T10:58:32.913Z,1013.33
2018-06-15T10:59:41.786Z,1013.73
2018-06-15T11:00:32.770Z,1013.81
2018-06-15T11:01:32.740Z,1013.87
2018-06-15T11:02:32.648Z,1013.84
2018-06-15T11:03:34.735Z,1013.87
2018-06-15T11:04:32.534Z,1013.89
2018-06-15T11:07:14.603Z,1013.89
2018-06-15T11:08:14.648Z,1013.87
2018-06-15T11:09:14.491Z,1013.83
2018-06-15T11:10:14.477Z,1013.86
2018-06-15T11:11:14.335Z,1013.80
2018-06-15T11:13:56.647Z,1013.82
2018-06-15T11:14:56.589Z,1013.78
2018-06-15T11:15:56.497Z,1013.75
2018-06-15T11:16:56.508Z,1013.76
2018-06-15T11:17:56.355Z,1013.72
2018-06-15T11:18:57.374Z,1013.11
2018-06-15T11:19:56.305Z,1013.07
2018-06-15T11:20:57.303Z,1013.12
2018-06-15T11:21:56.188Z,1013.72
2018-06-15T11:24:38.102Z,1013.68
2018-06-15T11:27:20.147Z,1013.66
2018-06-15T11:28:20.471Z,1013.65
2018-06-15T11:29:19.985Z,1013.63
2018-06-15T11:32:02.166Z,1013.51
2018-06-15T11:33:02.129Z,1013.55
2018-06-15T11:34:02.027Z,1013.55
2018-06-15T11:35:02.041Z,1013.55
2018-06-15T11:36:01.950Z,1013.56
2018-06-15T11:37:01.883Z,1013.50
2018-06-15T11:38:01.751Z,1013.53
2018-06-15T11:39:01.813Z,1013.51
2018-06-15T11:40:01.633Z,1013.49
2018-06-15T11:41:02.659Z,1013.47
2018-06-15T11:42:01.485Z,1013.35
2018-06-15T11:43:01.473Z,1013.11
2018-06-15T11:44:01.365Z,1012.97
2018-06-15T11:45:01.384Z,1012.99
2018-06-15T11:46:01.254Z,1012.92
2018-06-15T11:48:43.140Z,1012.85
2018-06-15T11:49:45.565Z,1012.82
2018-06-15T11:50:43.031Z,1012.83
2018-06-15T11:53:29.133Z,1012.78
2018-06-15T11:54:29.101Z,1012.76
2018-06-15T11:55:28.994Z,1012.70
2018-06-15T11:56:29.052Z,1012.77
2018-06-15T11:57:28.921Z,1012.75
2018-06-15T11:58:28.919Z,1012.76
2018-06-15T11:59:28.727Z,1012.73
2018-06-15T12:00:28.714Z,1012.71
2018-06-15T12:01:28.637Z,1012.66
2018-06-15T12:02:28.643Z,1012.65
2018-06-15T12:03:28.474Z,1012.63
2018-06-15T12:04:28.435Z,1012.62
2018-06-15T12:05:28.349Z,1012.68
2018-06-15T12:06:28.388Z,1012.65
2018-06-15T12:07:28.271Z,1012.68
2018-06-15T12:10:10.126Z,1012.72
2018-06-15T12:12:52.140Z,1012.67
2018-06-15T12:15:34.139Z,1012.64
2018-06-15T12:16:34.149Z,1012.60
2018-06-15T12:17:34.001Z,1012.59
2018-06-15T12:18:33.964Z,1012.59
2018-06-15T12:19:33.854Z,1012.51
2018-06-15T12:20:33.875Z,1012.57
2018-06-15T12:21:33.702Z,1012.51
2018-06-15T12:22:33.740Z,1012.50
2018-06-15T12:23:33.569Z,1012.45
2018-06-15T12:24:33.596Z,1012.52
2018-06-15T12:25:33.427Z,1012.51
2018-06-15T12:26:33.417Z,1012.50
2018-06-15T12:27:33.310Z,1012.50
2018-06-15T12:28:33.360Z,1012.53
2018-06-15T12:29:33.133Z,1012.51
2018-06-15T12:30:33.112Z,1012.47
2018-06-15T12:31:32.997Z,1012.49
2018-06-15T12:34:15.226Z,1012.49
2018-06-15T12:35:15.124Z,1012.48
2018-06-15T12:36:15.024Z,1012.46
2018-06-15T12:37:14.970Z,1012.48
2018-06-15T12:38:14.854Z,1012.52
2018-06-15T12:39:14.870Z,1012.52
2018-06-15T12:40:14.729Z,1012.49
2018-06-15T12:42:56.644Z,1012.53
2018-06-15T12:43:56.665Z,1012.54
2018-06-15T12:44:56.519Z,1012.47
2018-06-15T12:45:56.576Z,1012.49
2018-06-15T12:46:56.343Z,1012.49
2018-06-15T12:47:56.385Z,1012.48
2018-06-15T12:48:56.239Z,1012.49
2018-06-15T12:49:56.223Z,1012.52
2018-06-15T12:50:56.060Z,1012.52
2018-06-15T12:51:56.088Z,1012.47
2018-06-15T12:52:55.917Z,1012.44
2018-06-15T12:53:55.913Z,1012.42
2018-06-15T12:54:55.817Z,1012.41
2018-06-15T12:55:55.774Z,1012.40
2018-06-15T12:56:55.631Z,1012.40
2018-06-15T12:57:55.637Z,1012.35
2018-06-15T12:58:55.499Z,1012.37
2018-06-15T12:59:55.542Z,1012.34
2018-06-15T13:00:55.375Z,1012.38
2018-06-15T13:01:55.340Z,1012.38
2018-06-15T13:02:55.188Z,1012.38
2018-06-15T13:03:55.154Z,1012.40
2018-06-15T13:04:55.051Z,1012.37
2018-06-15T13:05:56.038Z,1012.43
2018-06-15T13:06:54.900Z,1012.43
2018-06-15T13:09:37.165Z,1012.38
2018-06-15T13:10:37.190Z,1012.38
2018-06-15T13:11:37.026Z,1012.42
2018-06-15T13:14:19.145Z,1012.43
2018-06-15T13:15:19.188Z,1012.45
2018-06-15T13:16:19.050Z,1012.44
2018-06-15T13:17:18.987Z,1012.45
2018-06-15T13:18:18.848Z,1012.40
2018-06-15T13:19:18.900Z,1012.42
2018-06-15T13:20:18.715Z,1012.40
2018-06-15T13:21:19.792Z,1012.40
2018-06-15T13:22:18.564Z,1012.40
2018-06-15T13:23:18.523Z,1012.37
2018-06-15T13:24:18.426Z,1012.36
2018-06-15T13:25:18.427Z,1012.36
2018-06-15T13:26:18.295Z,1012.37
2018-06-15T13:29:00.163Z,1012.43
2018-06-15T13:30:00.110Z,1012.38
2018-06-15T13:31:00.045Z,1012.42
2018-06-15T13:32:00.113Z,1012.38
2018-06-15T13:32:59.856Z,1012.43
2018-06-15T13:35:42.160Z,1012.37
2018-06-15T13:36:42.210Z,1012.41
2018-06-15T13:37:42.052Z,1012.37
2018-06-15T13:38:41.965Z,1012.33
2018-06-15T13:39:41.978Z,1012.34
2018-06-15T13:40:41.883Z,1012.33
2018-06-15T13:41:41.744Z,1012.27
2018-06-15T13:42:42.751Z,1012.27
2018-06-15T13:43:41.584Z,1012.28
2018-06-15T13:44:41.599Z,1012.30
2018-06-15T13:45:41.451Z,1012.27
2018-06-15T13:48:23.691Z,1012.23
2018-06-15T13:51:05.682Z,1012.23
2018-06-15T13:52:06.684Z,1012.25
2018-06-15T13:53:05.538Z,1012.29
2018-06-15T13:54:05.533Z,1012.31
2018-06-15T13:55:05.381Z,1012.24
2018-06-15T13:56:05.314Z,1012.26
2018-06-15T13:57:05.288Z,1012.24
2018-06-15T13:58:05.291Z,1012.25
2018-06-15T13:59:05.116Z,1012.33
2018-06-15T14:00:05.200Z,1012.24
2018-06-15T14:01:04.966Z,1012.27
2018-06-15T14:02:05.226Z,1012.33
2018-06-15T14:03:04.825Z,1012.29
2018-06-15T14:05:46.659Z,1012.30
2018-06-15T14:06:46.704Z,1012.28
2018-06-15T14:07:46.551Z,1012.23
2018-06-15T14:08:46.605Z,1012.30
2018-06-15T14:09:46.395Z,1012.27
2018-06-15T14:12:28.676Z,1012.17
2018-06-15T14:15:10.690Z,1012.15
2018-06-15T14:16:10.673Z,1012.13
2018-06-15T14:17:10.557Z,1012.06
2018-06-15T14:18:11.555Z,1012.10
2018-06-15T14:19:10.443Z,1012.06
2018-06-15T14:20:11.919Z,1012.15
2018-06-15T14:21:10.343Z,1012.20
2018-06-15T14:22:10.216Z,1012.21
2018-06-15T14:23:10.132Z,1012.24
2018-06-15T14:25:56.212Z,1012.11
2018-06-15T14:26:56.219Z,1012.10
2018-06-15T14:27:56.037Z,1012.04
2018-06-15T14:28:58.758Z,1012.04
2018-06-15T14:29:55.912Z,1012.04
2018-06-15T14:30:55.829Z,1012.04
2018-06-15T14:31:55.742Z,1012.11
2018-06-15T14:32:58.195Z,1012.03
2018-06-15T14:33:55.603Z,1012.05
2018-06-15T14:34:55.554Z,1012.03
2018-06-15T14:35:55.462Z,1012.03
2018-06-15T14:36:55.383Z,1012.01
2018-06-15T14:37:55.424Z,1012.06
2018-06-15T14:38:55.225Z,1012.04
2018-06-15T14:39:55.157Z,1012.00
2018-06-15T14:40:55.108Z,1012.02
2018-06-15T14:41:55.089Z,1012.02
2018-06-15T14:42:56.971Z,1012.02
2018-06-15T14:43:55.224Z,1012.00
2018-06-15T14:44:55.335Z,1012.08
2018-06-15T14:45:54.766Z,1012.07
2018-06-15T14:46:54.901Z,1012.09
2018-06-15T14:47:54.568Z,1012.04
2018-06-15T14:48:54.687Z,1012.05
2018-06-15T14:49:54.412Z,1012.03
2018-06-15T14:50:54.354Z,1012.06
2018-06-15T14:51:54.277Z,1012.08
2018-06-15T14:52:54.229Z,1012.07
2018-06-15T14:53:54.143Z,1012.04
2018-06-15T14:54:54.160Z,1012.03
2018-06-15T14:55:53.980Z,1012.01
2018-06-15T14:56:53.986Z,1012.01
2018-06-15T14:57:53.826Z,1011.98
2018-06-15T14:58:53.863Z,1012.01
2018-06-15T14:59:53.687Z,1012.01
2018-06-15T15:00:53.698Z,1011.98
2018-06-15T15:01:53.528Z,1011.92
2018-06-15T15:02:53.579Z,1011.97
2018-06-15T15:03:53.383Z,1011.95
2018-06-15T15:04:53.441Z,1011.92
2018-06-15T15:05:53.253Z,1011.98
2018-06-15T15:06:53.199Z,1011.96
2018-06-15T15:07:53.109Z,1011.99
2018-06-15T15:08:53.025Z,1011.98
2018-06-15T15:09:52.955Z,1011.99
2018-06-15T15:10:52.949Z,1011.87
2018-06-15T15:11:52.817Z,1011.90
2018-06-15T15:12:52.757Z,1011.92
2018-06-15T15:13:52.648Z,1011.90
2018-06-15T15:14:52.634Z,1011.91
2018-06-15T15:15:52.502Z,1011.95
2018-06-15T15:16:52.537Z,1011.94
2018-06-15T15:17:52.391Z,1011.90
2018-06-15T15:18:52.308Z,1011.91
2018-06-15T15:19:52.219Z,1011.94
2018-06-15T15:20:52.185Z,1011.94
2018-06-15T15:21:52.179Z,1011.90
2018-06-15T15:22:52.030Z,1011.92
2018-06-15T15:23:51.980Z,1011.89
2018-06-15T15:24:51.854Z,1011.89
2018-06-15T15:25:51.788Z,1011.95
2018-06-15T15:28:33.773Z,1011.95
2018-06-15T15:29:33.718Z,1011.92
2018-06-15T15:30:33.544Z,1011.88
2018-06-15T15:31:33.589Z,1011.86
2018-06-15T15:32:33.410Z,1011.84
2018-06-15T15:33:33.450Z,1011.88
2018-06-15T15:34:33.279Z,1011.86
2018-06-15T15:35:33.324Z,1011.85
2018-06-15T15:36:33.117Z,1011.87
2018-06-15T15:37:33.046Z,1011.86
2018-06-15T15:38:33.007Z,1011.86
2018-06-15T15:39:32.929Z,1011.88
2018-06-15T15:40:32.837Z,1011.87
2018-06-15T15:41:32.880Z,1011.86
2018-06-15T15:42:32.689Z,1011.85
2018-06-15T15:43:32.712Z,1011.81
2018-06-15T15:44:32.532Z,1011.83
2018-06-15T15:45:32.563Z,1011.83
2018-06-15T15:46:32.431Z,1011.82
2018-06-15T15:47:32.371Z,1011.82
2018-06-15T15:48:32.247Z,1011.81
2018-06-15T15:49:32.347Z,1011.79